sensor_id;sensor_type;location;lat;lon;timestamp;pressure;altitude;pressure_sealevel;temperature;humidity
74958;BME280;63741;42.624;26.276;2022-12-20T00:01:31;102003.53;;;-0.97;63.89
74958;BME280;63741;42.624;26.276;2022-12-20T00:04:01;102002.66;;;-0.94;63.43
74958;BME280;63741;42.624;26.276;2022-12-20T00:06:32;102005.16;;;-1.08;63.97
74958;BME280;63741;42.624;26.276;2022-12-20T00:09:01;102008.59;;;-1.12;62.86
74958;BME280;63741;42.624;26.276;2022-12-20T00:11:28;102007.88;;;-0.96;63.17
74958;BME280;63741;42.624;26.276;2022-12-20T00:13:56;102006.94;;;-1.06;64.19
74958;BME280;63741;42.624;26.276;2022-12-20T00:16:27;102014.66;;;-1.12;63.77
74958;BME280;63741;42.624;26.276;2022-12-20T00:19:02;102007.75;;;-1.10;64.74
74958;BME280;63741;42.624;26.276;2022-12-20T00:21:31;102014.56;;;-1.22;63.27
74958;BME280;63741;42.624;26.276;2022-12-20T00:23:59;102014.56;;;-1.24;64.28
74958;BME280;63741;42.624;26.276;2022-12-20T00:26:28;102011.97;;;-1.21;64.24
74958;BME280;63741;42.624;26.276;2022-12-20T00:28:56;102001.66;;;-1.13;64.69
74958;BME280;63741;42.624;26.276;2022-12-20T00:31:25;101999.13;;;-1.06;63.43
74958;BME280;63741;42.624;26.276;2022-12-20T00:33:54;101996.47;;;-1.15;63.53
74958;BME280;63741;42.624;26.276;2022-12-20T00:36:24;102000.63;;;-1.31;64.72
74958;BME280;63741;42.624;26.276;2022-12-20T00:38:53;102001.47;;;-1.36;65.98
74958;BME280;63741;42.624;26.276;2022-12-20T00:41:25;102007.41;;;-1.48;66.28
74958;BME280;63741;42.624;26.276;2022-12-20T00:43:53;102001.25;;;-1.59;66.54
74958;BME280;63741;42.624;26.276;2022-12-20T00:46:21;101999.47;;;-1.62;66.47
74958;BME280;63741;42.624;26.276;2022-12-20T00:48:51;101997.09;;;-1.39;65.01
74958;BME280;63741;42.624;26.276;2022-12-20T00:51:21;101989.53;;;-1.16;65.98
74958;BME280;63741;42.624;26.276;2022-12-20T00:53:49;101979.09;;;-1.22;65.36
74958;BME280;63741;42.624;26.276;2022-12-20T00:56:17;101981.38;;;-1.56;65.63
74958;BME280;63741;42.624;26.276;2022-12-20T00:58:44;101996.91;;;-1.57;65.90
74958;BME280;63741;42.624;26.276;2022-12-20T01:01:18;101983.78;;;-1.74;67.39
74958;BME280;63741;42.624;26.276;2022-12-20T01:03:47;101984.84;;;-1.55;65.87
74958;BME280;63741;42.624;26.276;2022-12-20T01:06:15;101977.22;;;-1.38;64.60
74958;BME280;63741;42.624;26.276;2022-12-20T01:08:42;101968.41;;;-1.56;66.22
74958;BME280;63741;42.624;26.276;2022-12-20T01:11:16;101967.56;;;-1.53;64.20
74958;BME280;63741;42.624;26.276;2022-12-20T01:13:46;101966.81;;;-1.40;65.18
74958;BME280;63741;42.624;26.276;2022-12-20T01:16:16;101966.06;;;-1.27;63.79
74958;BME280;63741;42.624;26.276;2022-12-20T01:18:44;101963.50;;;-1.22;62.07
74958;BME280;63741;42.624;26.276;2022-12-20T01:21:13;101954.88;;;-1.18;63.06
74958;BME280;63741;42.624;26.276;2022-12-20T01:23:41;101947.09;;;-1.18;61.46
74958;BME280;63741;42.624;26.276;2022-12-20T01:26:11;101936.56;;;-1.35;63.47
74958;BME280;63741;42.624;26.276;2022-12-20T01:28:40;101934.75;;;-1.43;62.71
74958;BME280;63741;42.624;26.276;2022-12-20T01:31:11;101924.94;;;-1.76;63.40
74958;BME280;63741;42.624;26.276;2022-12-20T01:33:38;101916.44;;;-1.63;63.49
74958;BME280;63741;42.624;26.276;2022-12-20T01:36:07;101923.28;;;-1.71;62.78
74958;BME280;63741;42.624;26.276;2022-12-20T01:38:34;101923.97;;;-1.88;63.78
74958;BME280;63741;42.624;26.276;2022-12-20T01:41:02;101907.56;;;-1.84;64.48
74958;BME280;63741;42.624;26.276;2022-12-20T01:43:53;101923.97;;;-1.88;63.54
74958;BME280;63741;42.624;26.276;2022-12-20T01:46:23;101914.53;;;-1.81;64.01
74958;BME280;63741;42.624;26.276;2022-12-20T01:48:55;101909.56;;;-1.57;63.49
74958;BME280;63741;42.624;26.276;2022-12-20T01:51:25;101901.09;;;-1.34;62.82
74958;BME280;63741;42.624;26.276;2022-12-20T01:54:09;101895.75;;;-1.54;62.69
74958;BME280;63741;42.624;26.276;2022-12-20T01:56:39;101885.38;;;-1.56;62.92
74958;BME280;63741;42.624;26.276;2022-12-20T01:59:07;101871.41;;;-1.65;62.84
74958;BME280;63741;42.624;26.276;2022-12-20T02:01:34;101877.75;;;-1.30;62.90
74958;BME280;63741;42.624;26.276;2022-12-20T02:04:01;101882.94;;;-1.33;61.69
74958;BME280;63741;42.624;26.276;2022-12-20T02:06:29;101871.75;;;-1.24;63.48
74958;BME280;63741;42.624;26.276;2022-12-20T02:08:59;101870.75;;;-1.43;63.96
74958;BME280;63741;42.624;26.276;2022-12-20T02:31:41;101878.03;;;-0.88;60.88
74958;BME280;63741;42.624;26.276;2022-12-20T02:34:10;101865.81;;;-1.03;61.23
74958;BME280;63741;42.624;26.276;2022-12-20T02:36:38;101864.97;;;-0.99;62.25
74958;BME280;63741;42.624;26.276;2022-12-20T02:39:05;101871.00;;;-1.05;62.72
74958;BME280;63741;42.624;26.276;2022-12-20T02:41:36;101866.69;;;-1.07;62.62
74958;BME280;63741;42.624;26.276;2022-12-20T02:44:09;101866.59;;;-1.16;62.67
74958;BME280;63741;42.624;26.276;2022-12-20T02:46:57;101851.84;;;-1.25;64.19
74958;BME280;63741;42.624;26.276;2022-12-20T02:49:30;101861.31;;;-1.30;64.30
74958;BME280;63741;42.624;26.276;2022-12-20T02:52:00;101863.03;;;-1.31;64.05
74958;BME280;63741;42.624;26.276;2022-12-20T02:54:28;101852.56;;;-1.44;64.68
74958;BME280;63741;42.624;26.276;2022-12-20T02:57:13;101851.69;;;-1.45;64.82
74958;BME280;63741;42.624;26.276;2022-12-20T02:59:52;101844.75;;;-1.50;64.23
74958;BME280;63741;42.624;26.276;2022-12-20T03:02:22;101833.50;;;-1.49;64.29
74958;BME280;63741;42.624;26.276;2022-12-20T03:04:50;101842.22;;;-1.41;64.02
74958;BME280;63741;42.624;26.276;2022-12-20T03:07:17;101832.75;;;-1.30;63.09
74958;BME280;63741;42.624;26.276;2022-12-20T03:09:44;101834.53;;;-1.23;62.21
74958;BME280;63741;42.624;26.276;2022-12-20T03:12:13;101825.97;;;-1.08;62.05
74958;BME280;63741;42.624;26.276;2022-12-20T03:14:42;101830.28;;;-1.13;61.45
74958;BME280;63741;42.624;26.276;2022-12-20T03:17:11;101835.53;;;-1.07;60.75
74958;BME280;63741;42.624;26.276;2022-12-20T03:19:38;101831.16;;;-1.10;62.41
74958;BME280;63741;42.624;26.276;2022-12-20T03:22:05;101832.16;;;-0.82;62.70
74958;BME280;63741;42.624;26.276;2022-12-20T03:24:32;101826.97;;;-0.85;61.85
74958;BME280;63741;42.624;26.276;2022-12-20T03:27:04;101825.13;;;-1.07;62.44
74958;BME280;63741;42.624;26.276;2022-12-20T03:29:30;101832.97;;;-0.98;63.43
74958;BME280;63741;42.624;26.276;2022-12-20T03:31:58;101826.06;;;-0.90;62.00
74958;BME280;63741;42.624;26.276;2022-12-20T03:34:25;101826.03;;;-1.02;63.12
74958;BME280;63741;42.624;26.276;2022-12-20T03:36:52;101835.63;;;-0.84;62.47
74958;BME280;63741;42.624;26.276;2022-12-20T03:39:19;101830.44;;;-0.77;61.61
74958;BME280;63741;42.624;26.276;2022-12-20T03:41:49;101822.63;;;-0.89;62.51
74958;BME280;63741;42.624;26.276;2022-12-20T03:44:17;101821.66;;;-1.03;61.42
74958;BME280;63741;42.624;26.276;2022-12-20T03:46:44;101823.41;;;-1.02;63.39
74958;BME280;63741;42.624;26.276;2022-12-20T03:49:11;101829.47;;;-1.02;61.28
74958;BME280;63741;42.624;26.276;2022-12-20T03:51:44;101826.09;;;-0.81;62.12
74958;BME280;63741;42.624;26.276;2022-12-20T03:54:12;101827.81;;;-0.89;61.95
74958;BME280;63741;42.624;26.276;2022-12-20T03:56:59;101830.44;;;-0.83;63.53
74958;BME280;63741;42.624;26.276;2022-12-20T03:59:26;101829.59;;;-0.77;60.69
74958;BME280;63741;42.624;26.276;2022-12-20T04:01:53;101830.50;;;-0.70;61.12
74958;BME280;63741;42.624;26.276;2022-12-20T04:04:21;101829.63;;;-0.63;60.35
74958;BME280;63741;42.624;26.276;2022-12-20T04:06:48;101827.88;;;-0.67;60.02
74958;BME280;63741;42.624;26.276;2022-12-20T04:09:15;101824.41;;;-0.75;61.66
74958;BME280;63741;42.624;26.276;2022-12-20T04:11:47;101831.41;;;-0.58;60.92
74958;BME280;63741;42.624;26.276;2022-12-20T04:14:14;101842.59;;;-0.74;61.70
74958;BME280;63741;42.624;26.276;2022-12-20T04:16:42;101833.88;;;-0.87;60.90
74958;BME280;63741;42.624;26.276;2022-12-20T04:19:10;101826.94;;;-0.92;61.17
74958;BME280;63741;42.624;26.276;2022-12-20T04:21:46;101831.28;;;-0.87;63.10
74958;BME280;63741;42.624;26.276;2022-12-20T04:24:14;101833.00;;;-0.89;62.38
74958;BME280;63741;42.624;26.276;2022-12-20T04:26:59;101825.19;;;-0.92;62.30
74958;BME280;63741;42.624;26.276;2022-12-20T04:29:26;101822.63;;;-0.89;63.81
74958;BME280;63741;42.624;26.276;2022-12-20T04:31:53;101826.03;;;-0.97;63.59
74958;BME280;63741;42.624;26.276;2022-12-20T04:34:21;101822.63;;;-0.86;62.21
74958;BME280;63741;42.624;26.276;2022-12-20T04:36:48;101822.59;;;-0.90;62.06
74958;BME280;63741;42.624;26.276;2022-12-20T04:39:24;101810.50;;;-0.88;61.98
74958;BME280;63741;42.624;26.276;2022-12-20T04:42:09;101806.22;;;-0.74;62.03
74958;BME280;63741;42.624;26.276;2022-12-20T04:44:36;101809.69;;;-0.73;61.42
74958;BME280;63741;42.624;26.276;2022-12-20T04:47:04;101811.44;;;-0.71;61.88
74958;BME280;63741;42.624;26.276;2022-12-20T04:49:31;101813.13;;;-0.78;60.88
74958;BME280;63741;42.624;26.276;2022-12-20T04:51:58;101819.19;;;-0.85;62.05
74958;BME280;63741;42.624;26.276;2022-12-20T04:54:46;101819.09;;;-0.94;61.26
74958;BME280;63741;42.624;26.276;2022-12-20T04:57:18;101817.34;;;-1.01;63.38
74958;BME280;63741;42.624;26.276;2022-12-20T04:59:45;101813.09;;;-0.87;62.55
74958;BME280;63741;42.624;26.276;2022-12-20T05:02:13;101814.84;;;-0.83;61.78
74958;BME280;63741;42.624;26.276;2022-12-20T05:05:04;101826.09;;;-0.88;61.67
74958;BME280;63741;42.624;26.276;2022-12-20T05:07:37;101818.25;;;-0.91;63.53
74958;BME280;63741;42.624;26.276;2022-12-20T05:10:04;101813.09;;;-0.82;63.92
74958;BME280;63741;42.624;26.276;2022-12-20T05:12:31;101812.19;;;-0.96;63.12
74958;BME280;63741;42.624;26.276;2022-12-20T05:15:01;101816.56;;;-0.86;63.07
74958;BME280;63741;42.624;26.276;2022-12-20T05:17:28;101809.66;;;-0.78;62.45
74958;BME280;63741;42.624;26.276;2022-12-20T05:19:56;101806.16;;;-0.86;60.95
74958;BME280;63741;42.624;26.276;2022-12-20T05:22:24;101806.09;;;-1.00;61.72
74958;BME280;63741;42.624;26.276;2022-12-20T05:25:12;101811.31;;;-0.95;62.47
74958;BME280;63741;42.624;26.276;2022-12-20T05:28:02;101813.00;;;-1.04;61.63
74958;BME280;63741;42.624;26.276;2022-12-20T05:30:33;101802.59;;;-1.08;62.42
74958;BME280;63741;42.624;26.276;2022-12-20T05:33:00;101803.47;;;-1.06;62.11
74958;BME280;63741;42.624;26.276;2022-12-20T05:35:28;101799.97;;;-1.16;62.57
74958;BME280;63741;42.624;26.276;2022-12-20T05:38:02;101799.06;;;-1.24;62.26
74958;BME280;63741;42.624;26.276;2022-12-20T05:40:30;101802.59;;;-1.11;60.74
74958;BME280;63741;42.624;26.276;2022-12-20T05:42:57;101796.44;;;-1.25;62.03
74958;BME280;63741;42.624;26.276;2022-12-20T05:45:34;101801.69;;;-1.19;61.40
74958;BME280;63741;42.624;26.276;2022-12-20T05:48:07;101808.63;;;-1.15;62.45
74958;BME280;63741;42.624;26.276;2022-12-20T05:50:38;101799.09;;;-1.19;62.43
74958;BME280;63741;42.624;26.276;2022-12-20T05:53:23;101805.16;;;-1.19;62.31
74958;BME280;63741;42.624;26.276;2022-12-20T05:55:53;101811.22;;;-1.12;61.74
74958;BME280;63741;42.624;26.276;2022-12-20T05:58:26;101815.59;;;-1.05;61.61
74958;BME280;63741;42.624;26.276;2022-12-20T06:01:02;101818.19;;;-1.04;62.12
74958;BME280;63741;42.624;26.276;2022-12-20T06:03:34;101823.47;;;-0.85;61.25
74958;BME280;63741;42.624;26.276;2022-12-20T06:06:05;101815.00;;;-0.28;60.09
74958;BME280;63741;42.624;26.276;2022-12-20T06:08:40;101827.16;;;0.62;56.90
74958;BME280;63741;42.624;26.276;2022-12-20T06:11:15;101828.59;;;1.58;54.12
74958;BME280;63741;42.624;26.276;2022-12-20T06:13:49;101833.22;;;2.41;51.27
74958;BME280;63741;42.624;26.276;2022-12-20T06:16:17;101830.84;;;2.15;51.80
74958;BME280;63741;42.624;26.276;2022-12-20T06:18:46;101827.19;;;2.36;50.99
74958;BME280;63741;42.624;26.276;2022-12-20T06:21:14;101833.03;;;2.64;50.54
74958;BME280;63741;42.624;26.276;2022-12-20T06:23:42;101828.53;;;2.76;49.87
74958;BME280;63741;42.624;26.276;2022-12-20T06:26:11;101830.69;;;3.19;48.94
74958;BME280;63741;42.624;26.276;2022-12-20T06:28:46;101835.06;;;3.85;47.30
74958;BME280;63741;42.624;26.276;2022-12-20T06:31:24;101829.34;;;4.17;46.12
74958;BME280;63741;42.624;26.276;2022-12-20T06:33:53;101829.00;;;3.82;48.18
74958;BME280;63741;42.624;26.276;2022-12-20T06:36:22;101833.03;;;3.44;48.41
74958;BME280;63741;42.624;26.276;2022-12-20T06:38:50;101828.88;;;3.26;48.71
74958;BME280;63741;42.624;26.276;2022-12-20T06:41:18;101824.69;;;3.13;49.18
74958;BME280;63741;42.624;26.276;2022-12-20T06:43:45;101833.34;;;3.15;50.17
74958;BME280;63741;42.624;26.276;2022-12-20T06:46:12;101822.94;;;3.13;49.33
74958;BME280;63741;42.624;26.276;2022-12-20T06:48:40;101819.44;;;3.13;49.18
74958;BME280;63741;42.624;26.276;2022-12-20T06:51:08;101820.09;;;3.32;48.98
74958;BME280;63741;42.624;26.276;2022-12-20T06:53:36;101814.66;;;3.47;49.07
74958;BME280;63741;42.624;26.276;2022-12-20T06:56:04;101814.47;;;3.61;48.63
74958;BME280;63741;42.624;26.276;2022-12-20T06:58:31;101807.53;;;3.58;49.04
74958;BME280;63741;42.624;26.276;2022-12-20T07:00:58;101799.72;;;3.55;48.34
74958;BME280;63741;42.624;26.276;2022-12-20T07:03:25;101810.72;;;3.80;48.45
74958;BME280;63741;42.624;26.276;2022-12-20T07:05:53;101802.72;;;3.88;47.90
74958;BME280;63741;42.624;26.276;2022-12-20T07:08:21;101798.72;;;4.19;47.71
74958;BME280;63741;42.624;26.276;2022-12-20T07:10:48;101809.75;;;4.40;45.84
74958;BME280;63741;42.624;26.276;2022-12-20T07:13:15;101801.50;;;4.12;47.37
74958;BME280;63741;42.624;26.276;2022-12-20T07:15:42;101801.56;;;4.58;45.74
74958;BME280;63741;42.624;26.276;2022-12-20T07:18:09;101793.88;;;4.49;47.33
74958;BME280;63741;42.624;26.276;2022-12-20T07:20:36;101802.66;;;4.45;46.28
74958;BME280;63741;42.624;26.276;2022-12-20T07:23:03;101813.94;;;4.50;47.10
74958;BME280;63741;42.624;26.276;2022-12-20T07:25:29;101811.88;;;4.67;46.04
74958;BME280;63741;42.624;26.276;2022-12-20T07:27:57;101809.25;;;4.67;46.59
74958;BME280;63741;42.624;26.276;2022-12-20T07:30:23;101806.63;;;4.67;46.54
74958;BME280;63741;42.624;26.276;2022-12-20T07:32:51;101807.38;;;4.75;45.76
74958;BME280;63741;42.624;26.276;2022-12-20T07:35:18;101802.38;;;4.62;46.10
74958;BME280;63741;42.624;26.276;2022-12-20T07:37:45;101804.09;;;5.09;46.67
74958;BME280;63741;42.624;26.276;2022-12-20T07:40:12;101799.03;;;5.42;45.57
74958;BME280;63741;42.624;26.276;2022-12-20T07:42:40;101790.47;;;5.33;44.47
74958;BME280;63741;42.624;26.276;2022-12-20T07:45:14;101803.78;;;5.65;45.54
74958;BME280;63741;42.624;26.276;2022-12-20T07:47:41;101793.72;;;5.45;45.82
74958;BME280;63741;42.624;26.276;2022-12-20T07:50:09;101793.25;;;5.26;46.46
74958;BME280;63741;42.624;26.276;2022-12-20T07:52:39;101805.88;;;5.49;47.74
74958;BME280;63741;42.624;26.276;2022-12-20T07:55:07;101791.56;;;5.64;45.14
74958;BME280;63741;42.624;26.276;2022-12-20T07:57:40;101796.78;;;6.02;45.86
74958;BME280;63741;42.624;26.276;2022-12-20T08:00:09;101799.75;;;5.87;44.63
74958;BME280;63741;42.624;26.276;2022-12-20T08:02:42;101792.75;;;5.49;46.47
74958;BME280;63741;42.624;26.276;2022-12-20T08:05:13;101790.75;;;5.60;46.72
74958;BME280;63741;42.624;26.276;2022-12-20T08:07:41;101791.19;;;5.79;46.54
74958;BME280;63741;42.624;26.276;2022-12-20T08:10:10;101800.44;;;5.97;46.75
74958;BME280;63741;42.624;26.276;2022-12-20T08:12:39;101780.78;;;6.47;44.81
74958;BME280;63741;42.624;26.276;2022-12-20T08:15:07;101787.56;;;6.56;43.87
74958;BME280;63741;42.624;26.276;2022-12-20T08:17:34;101787.03;;;6.76;43.48
74958;BME280;63741;42.624;26.276;2022-12-20T08:20:01;101780.91;;;6.43;45.13
74958;BME280;63741;42.624;26.276;2022-12-20T08:22:28;101774.22;;;6.31;44.77
74958;BME280;63741;42.624;26.276;2022-12-20T08:24:54;101776.41;;;6.48;45.47
74958;BME280;63741;42.624;26.276;2022-12-20T08:27:21;101770.41;;;7.06;43.62
74958;BME280;63741;42.624;26.276;2022-12-20T08:29:48;101766.97;;;6.72;44.91
74958;BME280;63741;42.624;26.276;2022-12-20T08:32:15;101773.59;;;6.87;43.38
74958;BME280;63741;42.624;26.276;2022-12-20T08:34:42;101756.34;;;6.44;44.20
74958;BME280;63741;42.624;26.276;2022-12-20T08:37:10;101765.53;;;6.60;44.87
74958;BME280;63741;42.624;26.276;2022-12-20T08:39:40;101752.44;;;6.58;45.33
74958;BME280;63741;42.624;26.276;2022-12-20T08:42:07;101751.59;;;6.58;44.16
74958;BME280;63741;42.624;26.276;2022-12-20T08:44:34;101742.25;;;6.46;44.39
74958;BME280;63741;42.624;26.276;2022-12-20T08:47:01;101741.06;;;6.58;45.58
74958;BME280;63741;42.624;26.276;2022-12-20T08:49:28;101750.63;;;6.61;45.02
74958;BME280;63741;42.624;26.276;2022-12-20T08:51:55;101738.97;;;7.00;44.44
74958;BME280;63741;42.624;26.276;2022-12-20T08:54:22;101735.22;;;6.79;43.69
74958;BME280;63741;42.624;26.276;2022-12-20T08:56:48;101732.09;;;6.96;43.54
74958;BME280;63741;42.624;26.276;2022-12-20T08:59:15;101730.47;;;6.92;44.73
74958;BME280;63741;42.624;26.276;2022-12-20T09:01:42;101731.19;;;7.27;43.25
74958;BME280;63741;42.624;26.276;2022-12-20T09:04:10;101718.63;;;7.63;43.16
74958;BME280;63741;42.624;26.276;2022-12-20T09:06:37;101713.63;;;7.55;44.00
74958;BME280;63741;42.624;26.276;2022-12-20T09:09:04;101713.34;;;7.65;44.40
74958;BME280;63741;42.624;26.276;2022-12-20T09:11:32;101713.06;;;7.72;42.90
74958;BME280;63741;42.624;26.276;2022-12-20T09:13:59;101704.59;;;7.91;43.40
74958;BME280;63741;42.624;26.276;2022-12-20T09:16:29;101702.38;;;8.03;44.02
74958;BME280;63741;42.624;26.276;2022-12-20T09:18:58;101703.13;;;8.08;42.30
74958;BME280;63741;42.624;26.276;2022-12-20T09:21:31;101702.50;;;8.00;42.82
74958;BME280;63741;42.624;26.276;2022-12-20T09:23:59;101697.84;;;7.82;43.98
74958;BME280;63741;42.624;26.276;2022-12-20T09:26:26;101693.72;;;8.26;42.66
74958;BME280;63741;42.624;26.276;2022-12-20T09:28:53;101688.66;;;8.45;41.66
74958;BME280;63741;42.624;26.276;2022-12-20T09:31:22;101688.78;;;8.66;42.44
74958;BME280;63741;42.624;26.276;2022-12-20T09:33:52;101686.81;;;8.72;41.47
74958;BME280;63741;42.624;26.276;2022-12-20T09:36:21;101681.28;;;8.55;41.69
74958;BME280;63741;42.624;26.276;2022-12-20T09:38:49;101672.94;;;8.67;41.59
74958;BME280;63741;42.624;26.276;2022-12-20T09:41:37;101665.34;;;8.81;42.23
74958;BME280;63741;42.624;26.276;2022-12-20T09:44:27;101668.25;;;8.97;42.80
74958;BME280;63741;42.624;26.276;2022-12-20T09:47:04;101660.81;;;8.85;41.95
74958;BME280;63741;42.624;26.276;2022-12-20T09:49:39;101653.06;;;9.04;41.16
74958;BME280;63741;42.624;26.276;2022-12-20T10:00:14;101634.34;;;9.32;41.33
74958;BME280;63741;42.624;26.276;2022-12-20T10:02:42;101635.56;;;9.45;41.49
74958;BME280;63741;42.624;26.276;2022-12-20T10:25:58;101607.06;;;10.15;39.41
74958;BME280;63741;42.624;26.276;2022-12-20T10:28:28;101609.44;;;10.21;38.74
74958;BME280;63741;42.624;26.276;2022-12-20T10:31:13;101602.91;;;10.09;40.20
74958;BME280;63741;42.624;26.276;2022-12-20T10:33:42;101597.22;;;9.77;39.30
74958;BME280;63741;42.624;26.276;2022-12-20T10:36:27;101590.03;;;9.81;39.09
74958;BME280;63741;42.624;26.276;2022-12-20T10:38:59;101591.00;;;10.19;40.04
74958;BME280;63741;42.624;26.276;2022-12-20T10:41:29;101589.00;;;10.63;38.73
74958;BME280;63741;42.624;26.276;2022-12-20T10:44:17;101584.47;;;11.03;38.58
74958;BME280;63741;42.624;26.276;2022-12-20T10:46:51;101574.19;;;10.59;39.89
74958;BME280;63741;42.624;26.276;2022-12-20T10:52:11;101568.78;;;10.23;38.41
74958;BME280;63741;42.624;26.276;2022-12-20T10:54:39;101565.31;;;10.79;40.02
74958;BME280;63741;42.624;26.276;2022-12-20T10:57:27;101551.13;;;10.80;37.58
74958;BME280;63741;42.624;26.276;2022-12-20T10:59:57;101565.81;;;10.87;38.81
74958;BME280;63741;42.624;26.276;2022-12-20T11:07:37;101542.59;;;10.37;39.08
74958;BME280;63741;42.624;26.276;2022-12-20T11:10:21;101534.16;;;11.03;39.42
74958;BME280;63741;42.624;26.276;2022-12-20T11:12:56;101536.91;;;11.54;38.42
74958;BME280;63741;42.624;26.276;2022-12-20T11:15:34;101529.19;;;11.49;38.09
74958;BME280;63741;42.624;26.276;2022-12-20T11:23:46;101517.88;;;11.11;38.57
74958;BME280;63741;42.624;26.276;2022-12-20T11:37:25;101497.09;;;11.21;37.22
74958;BME280;63741;42.624;26.276;2022-12-20T11:39:58;101490.91;;;11.20;37.46
74958;BME280;63741;42.624;26.276;2022-12-20T11:51:10;101479.94;;;10.38;38.80
74958;BME280;63741;42.624;26.276;2022-12-20T11:53:54;101476.50;;;10.91;38.97
74958;BME280;63741;42.624;26.276;2022-12-20T11:56:37;101475.44;;;10.40;39.06
74958;BME280;63741;42.624;26.276;2022-12-20T11:59:30;101473.47;;;9.87;39.18
74958;BME280;63741;42.624;26.276;2022-12-20T12:02:09;101467.94;;;10.31;39.45
74958;BME280;63741;42.624;26.276;2022-12-20T12:05:03;101463.00;;;10.42;39.20
74958;BME280;63741;42.624;26.276;2022-12-20T12:07:33;101461.41;;;10.57;39.40
74958;BME280;63741;42.624;26.276;2022-12-20T12:10:20;101460.38;;;10.96;38.69
74958;BME280;63741;42.624;26.276;2022-12-20T12:13:17;101452.88;;;10.69;39.22
74958;BME280;63741;42.624;26.276;2022-12-20T12:18:23;101445.06;;;10.66;40.04
74958;BME280;63741;42.624;26.276;2022-12-20T12:26:14;101449.09;;;9.80;41.70
74958;BME280;63741;42.624;26.276;2022-12-20T12:28:46;101442.84;;;10.02;41.26
74958;BME280;63741;42.624;26.276;2022-12-20T12:31:17;101440.03;;;9.86;40.63
74958;BME280;63741;42.624;26.276;2022-12-20T12:45:40;101444.88;;;9.76;42.71
74958;BME280;63741;42.624;26.276;2022-12-20T12:48:45;101441.69;;;9.88;42.02
74958;BME280;63741;42.624;26.276;2022-12-20T12:51:21;101433.03;;;9.46;43.45
74958;BME280;63741;42.624;26.276;2022-12-20T12:53:52;101438.41;;;10.02;42.86
74958;BME280;63741;42.624;26.276;2022-12-20T13:04:55;101437.47;;;16.29;30.96
74958;BME280;63741;42.624;26.276;2022-12-20T13:07:43;101441.22;;;17.23;28.84
74958;BME280;63741;42.624;26.276;2022-12-20T13:17:50;101439.41;;;13.33;35.16
74958;BME280;63741;42.624;26.276;2022-12-20T13:30:46;101425.38;;;9.98;42.67
74958;BME280;63741;42.624;26.276;2022-12-20T13:33:38;101423.81;;;9.75;43.42
74958;BME280;63741;42.624;26.276;2022-12-20T13:49:41;101405.00;;;9.02;45.24
74958;BME280;63741;42.624;26.276;2022-12-20T13:52:37;101395.75;;;9.13;45.65
74958;BME280;63741;42.624;26.276;2022-12-20T13:55:20;101403.06;;;9.06;45.38
74958;BME280;63741;42.624;26.276;2022-12-20T13:57:49;101397.91;;;8.82;45.29
74958;BME280;63741;42.624;26.276;2022-12-20T14:00:24;101398.47;;;8.48;45.59
74958;BME280;63741;42.624;26.276;2022-12-20T14:02:52;101400.03;;;8.52;46.01
74958;BME280;63741;42.624;26.276;2022-12-20T14:05:40;101390.88;;;8.41;47.07
74958;BME280;63741;42.624;26.276;2022-12-20T14:08:12;101389.50;;;8.30;47.51
74958;BME280;63741;42.624;26.276;2022-12-20T14:10:41;101386.91;;;8.29;46.73
74958;BME280;63741;42.624;26.276;2022-12-20T14:13:25;101387.16;;;8.23;47.88
74958;BME280;63741;42.624;26.276;2022-12-20T14:15:53;101382.75;;;8.23;47.29
74958;BME280;63741;42.624;26.276;2022-12-20T14:18:24;101378.38;;;8.22;46.70
74958;BME280;63741;42.624;26.276;2022-12-20T14:20:58;101369.47;;;8.25;46.47
74958;BME280;63741;42.624;26.276;2022-12-20T14:26:10;101367.94;;;7.97;47.52
74958;BME280;63741;42.624;26.276;2022-12-20T14:28:46;101368.00;;;7.72;47.76
74958;BME280;63741;42.624;26.276;2022-12-20T14:31:42;101358.34;;;7.49;46.64
74958;BME280;63741;42.624;26.276;2022-12-20T14:39:30;101357.88;;;7.15;50.23
74958;BME280;63741;42.624;26.276;2022-12-20T14:42:00;101360.78;;;7.07;51.88
74958;BME280;63741;42.624;26.276;2022-12-20T14:44:29;101355.94;;;6.95;52.50
74958;BME280;63741;42.624;26.276;2022-12-20T14:47:04;101351.69;;;6.91;51.69
74958;BME280;63741;42.624;26.276;2022-12-20T14:49:39;101351.38;;;6.75;52.19
74958;BME280;63741;42.624;26.276;2022-12-20T14:52:13;101356.06;;;6.65;53.88
74958;BME280;63741;42.624;26.276;2022-12-20T14:54:43;101353.81;;;6.54;53.12
74958;BME280;63741;42.624;26.276;2022-12-20T15:03:02;101345.06;;;6.54;54.03
74958;BME280;63741;42.624;26.276;2022-12-20T15:11:11;101331.47;;;6.41;55.22
74958;BME280;63741;42.624;26.276;2022-12-20T15:13:45;101337.78;;;6.36;55.16
74958;BME280;63741;42.624;26.276;2022-12-20T15:16:13;101335.06;;;6.39;55.41
74958;BME280;63741;42.624;26.276;2022-12-20T15:18:40;101336.72;;;6.15;55.52
74958;BME280;63741;42.624;26.276;2022-12-20T15:21:16;101339.56;;;6.07;55.28
74958;BME280;63741;42.624;26.276;2022-12-20T15:23:50;101331.19;;;5.96;56.34
74958;BME280;63741;42.624;26.276;2022-12-20T15:26:20;101332.88;;;5.98;56.50
74958;BME280;63741;42.624;26.276;2022-12-20T15:28:47;101325.50;;;5.80;57.13
74958;BME280;63741;42.624;26.276;2022-12-20T15:31:16;101325.03;;;5.67;57.16
74958;BME280;63741;42.624;26.276;2022-12-20T15:33:45;101328.03;;;5.55;56.98
74958;BME280;63741;42.624;26.276;2022-12-20T15:36:24;101326.28;;;5.24;58.59
74958;BME280;63741;42.624;26.276;2022-12-20T15:38:56;101323.53;;;5.29;58.05
74958;BME280;63741;42.624;26.276;2022-12-20T15:41:43;101323.63;;;5.26;57.74
74958;BME280;63741;42.624;26.276;2022-12-20T15:44:15;101330.50;;;5.30;56.75
74958;BME280;63741;42.624;26.276;2022-12-20T15:46:42;101328.22;;;5.18;57.28
74958;BME280;63741;42.624;26.276;2022-12-20T15:51:45;101327.56;;;4.78;56.78